Latest Coastal Weather Observations for Frankston

IDV60701

Issued at 5:11 pm EST Monday 27 April 2015 (issued every 10 minutes, with the page automatically refreshed every 10 minutes)

About coastal observations | Map of coastal stations | Coastal observations for VIC | Marine services | Other Formats
Station Details ID: 086371 Name: FRANKSTON AWS Lat: -38.15 Lon: 145.12 Height: 6.0 m
Data from the previous 72 hours. | See also: Recent months at Frankston
Date/Time
EST
Temp

°C
Wind Pressure Rain
since 9am
mm
Weather Cloud Vis
km
Sea
Height
m
Swell
Dir
 
Speed
knots
Gust
knots
hPa Trend Height
m
Period
s
Dir
27/05:00pm 12.5 SSW 4 6 - - - - - - - - - -
27/04:30pm 12.3 SSW 4 8 - - - - - - - - - -
27/04:00pm 13.1 SW 9 17 - - - - - - - - - -
27/03:30pm 13.2 SW 5 10 - - - - - - - - - -
27/03:00pm 12.2 SSW 6 11 - - - - - - - - - -
27/02:30pm 13.3 WSW 15 22 - - - - - - - - - -
27/02:00pm 13.7 WSW 10 13 - - - - - - - - - -
27/01:30pm 13.8 SW 6 10 - - - - - - - - - -
27/01:00pm 12.3 WSW 6 9 - - - - - - - - - -
27/12:30pm 12.6 S 2 5 - - - - - - - - - -
27/12:00pm 12.1 W 9 11 - - - - - - - - - -
27/11:30am 12.7 W 13 15 - - - - - - - - - -
27/11:00am 12.4 W 12 14 - - - - - - - - - -
27/10:30am 12.9 WSW 7 14 - - - - - - - - - -
27/10:00am 12.2 SW 4 6 - - - - - - - - - -
27/09:30am 12.1 W 13 16 - - - - - - - - - -
27/09:00am 12.7 W 10 13 - - - - - - - - - -
27/08:30am 12.5 W 10 12 - - - - - - - - - -
27/08:00am 12.1 W 15 17 - - - - - - - - - -
27/07:30am 12.7 W 9 10 - - - - - - - - - -
27/07:00am 13.2 WSW 11 13 - - - - - - - - - -
27/06:30am 12.8 SW 6 16 - - - - - - - - - -
27/06:00am 13.3 W 10 13 - - - - - - - - - -
27/05:30am 12.7 W 11 13 - - - - - - - - - -
27/05:00am 12.5 W 12 15 - - - - - - - - - -
27/04:30am 12.3 SW 8 12 - - - - - - - - - -
27/04:00am 12.1 WSW 6 9 - - - - - - - - - -
27/03:30am 11.7 SSW 5 9 - - - - - - - - - -
27/03:11am 12.7 WSW 12 21 - - - - - - - - - -
27/03:00am 12.2 SW 5 9 - - - - - - - - - -
27/02:30am 12.4 W 12 16 - - - - - - - - - -
27/02:00am 12.3 W 15 18 - - - - - - - - - -
27/01:30am 12.1 W 14 17 - - - - - - - - - -
27/01:00am 12.5 W 15 18 - - - - - - - - - -
27/12:30am 12.0 W 16 20 - - - - - - - - - -
27/12:00am 12.6 W 16 19 - - - - - - - - - -
 
Date/Time
EST
Temp

°C
Wind Pressure Rain
since 9am
mm
Weather Cloud Vis
km
Sea
Height
m
Swell
Dir
 
Speed
knots
Gust
knots
hPa Trend Height
m
Period
s
Dir
26/11:30pm 12.7 W 14 17 - - - - - - - - - -
26/11:00pm 12.3 W 14 17 - - - - - - - - - -
26/10:30pm 12.0 W 18 21 - - - - - - - - - -
26/10:00pm 12.7 W 14 16 - - - - - - - - - -
26/09:30pm 13.0 W 14 17 - - - - - - - - - -
26/09:00pm 13.3 W 15 18 - - - - - - - - - -
26/08:30pm 12.2 W 17 20 - - - - - - - - - -
26/08:16pm 13.1 WSW 11 26 - - - - - - - - - -
26/08:00pm 12.0 SW 6 9 - - - - - - - - - -
26/07:30pm 13.4 W 10 13 - - - - - - - - - -
26/07:00pm 13.3 WSW 14 18 - - - - - - - - - -
26/06:30pm 13.4 W 18 23 - - - - - - - - - -
26/06:00pm 12.2 SW 16 25 - - - - - - - - - -
26/05:54pm 12.7 SW 16 30 - - - - - - - - - -
26/05:30pm 14.1 WSW 17 22 - - - - - - - - - -
26/05:00pm 14.2 SW 11 20 - - - - - - - - - -
26/04:30pm 14.2 SW 15 19 - - - - - - - - - -
26/04:00pm 14.1 WSW 18 23 - - - - - - - - - -
26/03:30pm 14.2 WSW 18 22 - - - - - - - - - -
26/03:00pm 13.3 WSW 16 20 - - - - - - - - - -
26/02:30pm 13.1 SW 20 25 - - - - - - - - - -
26/02:00pm 13.8 WSW 17 19 - - - - - - - - - -
26/01:30pm 13.2 WSW 20 26 - - - - - - - - - -
26/01:00pm 14.0 WSW 12 18 - - - - - - - - - -
26/12:30pm 13.6 SW 8 11 - - - - - - - - - -
26/12:00pm 12.3 SSW 5 9 - - - - - - - - - -
26/11:45am 12.3 SW 9 20 - - - - - - - - - -
26/11:30am 12.3 SSW 6 12 - - - - - - - - - -
26/11:13am 12.4 SW 7 19 - - - - - - - - - -
26/11:00am 13.0 SW 4 8 - - - - - - - - - -
26/10:30am 11.7 SSW 7 13 - - - - - - - - - -
26/10:00am 13.0 SW 6 12 - - - - - - - - - -
26/09:30am 13.4 SW 7 10 - - - - - - - - - -
26/09:00am 12.3 SW 9 14 - - - - - - - - - -
26/08:30am 12.7 SW 6 9 - - - - - - - - - -
26/08:00am 12.6 SW 5 8 - - - - - - - - - -
26/07:30am 12.5 SSW 5 8 - - - - - - - - - -
26/07:00am 12.7 SW 8 14 - - - - - - - - - -
26/06:30am 12.7 SW 6 9 - - - - - - - - - -
26/06:00am 12.5 SSW 6 9 - - - - - - - - - -
26/05:30am 12.5 SW 6 9 - - - - - - - - - -
26/05:00am 12.5 SW 7 10 - - - - - - - - - -
26/04:30am 12.4 SW 8 11 - - - - - - - - - -
26/04:00am 12.5 SSW 7 12 - - - - - - - - - -
26/03:30am 12.9 SW 8 14 - - - - - - - - - -
26/03:00am 13.2 SW 9 14 - - - - - - - - - -
26/02:30am 13.2 SW 8 13 - - - - - - - - - -
26/02:00am 13.3 SW 10 14 - - - - - - - - - -
26/01:30am 12.9 SW 8 11 - - - - - - - - - -
26/01:00am 13.0 SW 8 12 - - - - - - - - - -
26/12:30am 13.0 SW 9 15 - - - - - - - - - -
26/12:00am 12.6 SW 6 9 - - - - - - - - - -
 
Date/Time
EST
Temp

°C
Wind Pressure Rain
since 9am
mm
Weather Cloud Vis
km
Sea
Height
m
Swell
Dir
 
Speed
knots
Gust
knots
hPa Trend Height
m
Period
s
Dir
25/11:30pm 13.0 SW 11 15 - - - - - - - - - -
25/11:00pm 13.4 SW 10 15 - - - - - - - - - -
25/10:30pm 13.6 SW 11 13 - - - - - - - - - -
25/10:00pm 13.4 SW 9 13 - - - - - - - - - -
25/09:30pm 13.6 SW 6 9 - - - - - - - - - -
25/09:00pm 13.7 SW 7 11 - - - - - - - - - -
25/08:30pm 13.7 SW 7 11 - - - - - - - - - -
25/08:00pm 13.7 SW 7 10 - - - - - - - - - -
25/07:30pm 13.7 SW 4 5 - - - - - - - - - -
25/07:00pm 13.6 SW 6 10 - - - - - - - - - -
25/06:30pm 13.9 SW 3 5 - - - - - - - - - -
25/06:00pm 14.2 SW 4 5 - - - - - - - - - -
25/05:30pm 14.1 SSW 4 7 - - - - - - - - - -
25/05:00pm 14.2 SW 5 6 - - - - - - - - - -
25/04:30pm 14.5 SW 6 9 - - - - - - - - - -
25/04:00pm 14.1 SW 5 6 - - - - - - - - - -
25/03:30pm 13.9 SSW 2 3 - - - - - - - - - -
25/03:00pm 14.1 S 4 8 - - - - - - - - - -
25/02:30pm 14.9 S 5 9 - - - - - - - - - -
25/02:00pm 14.8 W 5 7 - - - - - - - - - -
25/01:30pm 14.2 WNW 8 9 - - - - - - - - - -
25/01:00pm 13.7 NW 8 9 - - - - - - - - - -
25/12:30pm 13.4 NW 5 7 - - - - - - - - - -
25/12:00pm 13.3 WNW 7 8 - - - - - - - - - -
25/11:30am 13.3 NW 11 12 - - - - - - - - - -
25/11:00am 13.7 NNW 8 12 - - - - - - - - - -
25/10:30am 13.9 N 6 9 - - - - - - - - - -
25/10:00am 14.1 NNW 3 4 - - - - - - - - - -
25/09:30am 13.9 WSW 2 3 - - - - - - - - - -
25/09:00am 13.8 CALM 0 0 - - - - - - - - - -
25/08:30am 13.6 SSW 2 3 - - - - - - - - - -
25/08:00am 13.8 WNW 4 5 - - - - - - - - - -
25/07:30am 13.7 WNW 6 7 - - - - - - - - - -
25/07:00am 13.6 W 8 9 - - - - - - - - - -
25/06:30am 13.5 WSW 8 10 - - - - - - - - - -
25/06:00am 13.2 WSW 10 12 - - - - - - - - - -
25/05:30am 13.1 W 10 12 - - - - - - - - - -
25/05:00am 13.4 WNW 11 13 - - - - - - - - - -
25/04:30am 13.8 W 10 11 - - - - - - - - - -
25/04:00am 13.7 WNW 9 11 - - - - - - - - - -
25/03:30am 13.9 WNW 7 11 - - - - - - - - - -
25/03:00am 14.3 NW 4 6 - - - - - - - - - -
25/02:30am 14.2 WNW 4 6 - - - - - - - - - -
25/02:00am 14.2 WNW 7 9 - - - - - - - - - -
25/01:30am 14.4 WNW 9 11 - - - - - - - - - -
25/01:00am 14.2 WNW 10 13 - - - - - - - - - -
25/12:30am 14.2 NW 7 9 - - - - - - - - - -
25/12:00am 14.1 WNW 7 9 - - - - - - - - - -
 
Date/Time
EST
Temp

°C
Wind Pressure Rain
since 9am
mm
Weather Cloud Vis
km
Sea
Height
m
Swell
Dir
 
Speed
knots
Gust
knots
hPa Trend Height
m
Period
s
Dir
24/11:30pm 14.0 WSW 5 8 - - - - - - - - - -
24/11:00pm 13.8 WSW 6 8 - - - - - - - - - -
24/10:30pm 13.3 W 12 16 - - - - - - - - - -
24/10:10pm 15.1 NNE 6 20 - - - - - - - - - -
24/10:00pm 15.2 E 1 3 - - - - - - - - - -
24/09:30pm 15.5 ENE 2 3 - - - - - - - - - -
24/09:00pm 15.8 E 2 3 - - - - - - - - - -
24/08:30pm 16.0 E 2 3 - - - - - - - - - -
24/08:00pm 16.5 ENE 2 5 - - - - - - - - - -
24/07:30pm 17.1 NE 2 4 - - - - - - - - - -
24/07:00pm 16.9 S 1 2 - - - - - - - - - -
24/06:30pm 17.1 SSW 2 4 - - - - - - - - - -
24/06:00pm 17.0 WSW 6 8 - - - - - - - - - -
24/05:30pm 17.1 W 7 9 - - - - - - - - - -

Other Formats:

Comma delimited format used in spreadsheet applications
http://www.bom.gov.au/fwo/IDV60701/IDV60701.94871.axf

JavaScript Object Notation format (JSON) in row-major order
http://www.bom.gov.au/fwo/IDV60701/IDV60701.94871.json